createdAt,value
2024-02-08T00:00:11.631Z,13.43
2024-02-08T00:02:39.320Z,15.05
2024-02-08T00:05:08.799Z,14.27
2024-02-08T00:07:36.471Z,12.85
2024-02-08T00:10:09.709Z,13.38
2024-02-08T00:12:40.940Z,25.80
2024-02-08T00:15:08.726Z,25.02
2024-02-08T00:17:36.018Z,15.32
2024-02-08T00:20:04.374Z,15.63
2024-02-08T00:22:31.567Z,14.95
2024-02-08T00:24:58.681Z,11.75
2024-02-08T00:27:26.285Z,19.60
2024-02-08T00:29:53.410Z,19.60
2024-02-08T00:32:20.705Z,19.95
2024-02-08T00:34:48.680Z,24.38
2024-02-08T00:37:15.796Z,25.88
2024-02-08T00:39:45.659Z,22.08
2024-02-08T00:42:12.796Z,19.95
2024-02-08T00:44:42.938Z,23.52
2024-02-08T00:47:11.737Z,20.27
2024-02-08T00:49:40.987Z,17.08
2024-02-08T00:52:13.398Z,22.48
2024-02-08T00:54:40.543Z,23.15
2024-02-08T00:57:11.874Z,23.88
2024-02-08T00:59:39.574Z,26.52
2024-02-08T01:02:07.939Z,16.75
2024-02-08T01:04:35.363Z,20.00
2024-02-08T01:07:03.174Z,17.50
2024-02-08T01:09:30.710Z,15.60
2024-02-08T01:11:57.957Z,29.92
2024-02-08T01:14:25.090Z,41.78
2024-02-08T01:16:53.170Z,37.58
2024-02-08T01:19:24.318Z,22.40
2024-02-08T01:21:51.826Z,21.75
2024-02-08T01:24:19.931Z,20.42
2024-02-08T01:26:47.969Z,17.27
2024-02-08T01:29:16.080Z,18.30
2024-02-08T01:31:43.540Z,15.23
2024-02-08T01:34:11.957Z,32.35
2024-02-08T01:36:42.852Z,40.17
2024-02-08T01:39:14.653Z,18.90
2024-02-08T01:41:44.545Z,16.95
2024-02-08T01:44:14.955Z,15.80
2024-02-08T01:46:42.584Z,14.57
2024-02-08T01:49:13.979Z,12.98
2024-02-08T01:51:41.641Z,14.98
2024-02-08T01:54:13.713Z,11.00
2024-02-08T01:56:45.832Z,11.63
2024-02-08T01:59:15.116Z,15.50
2024-02-08T02:01:48.636Z,16.00
2024-02-08T02:04:17.574Z,9.02
2024-02-08T02:06:45.284Z,15.07
2024-02-08T02:09:25.897Z,12.85
2024-02-08T02:11:59.359Z,13.02
2024-02-08T02:14:30.745Z,19.80
2024-02-08T02:17:18.053Z,16.77
2024-02-08T02:19:45.332Z,15.20
2024-02-08T02:22:14.371Z,14.60
2024-02-08T02:24:42.428Z,14.32
2024-02-08T02:27:13.492Z,14.38
2024-02-08T02:29:41.466Z,14.50
2024-02-08T02:32:17.273Z,13.13
2024-02-08T02:34:46.234Z,16.75
2024-02-08T02:37:13.567Z,15.15
2024-02-08T02:39:40.629Z,18.13
2024-02-08T02:42:08.198Z,15.73
2024-02-08T02:44:36.686Z,12.13
2024-02-08T02:47:07.331Z,13.43
2024-02-08T02:49:38.874Z,14.57
2024-02-08T02:52:09.738Z,13.75
2024-02-08T02:57:04.771Z,8.98
2024-02-08T02:59:32.412Z,12.60
2024-02-08T03:01:59.844Z,11.98
2024-02-08T03:04:29.804Z,9.60
2024-02-08T03:06:57.349Z,11.57
2024-02-08T03:09:29.336Z,10.98
2024-02-08T03:12:00.201Z,12.50
2024-02-08T03:14:27.899Z,12.80
2024-02-08T03:17:02.629Z,11.73
2024-02-08T03:19:30.571Z,13.45
2024-02-08T03:21:58.086Z,14.63
2024-02-08T03:24:25.814Z,6.57
2024-02-08T03:26:53.423Z,11.25
2024-02-08T03:29:23.289Z,13.07
2024-02-08T03:31:54.083Z,9.10
2024-02-08T03:34:21.490Z,13.45
2024-02-08T03:36:48.690Z,11.73
2024-02-08T03:39:26.903Z,11.98
2024-02-08T03:42:02.937Z,12.88
2024-02-08T03:44:35.637Z,20.40
2024-02-08T03:47:09.876Z,11.57
2024-02-08T03:49:39.010Z,11.55
2024-02-08T03:52:12.996Z,16.27
2024-02-08T03:54:40.117Z,13.43
2024-02-08T03:57:09.115Z,11.50
2024-02-08T03:59:42.220Z,16.15
2024-02-08T04:02:11.392Z,16.42
2024-02-08T04:05:01.017Z,13.55
2024-02-08T04:07:47.665Z,13.02
2024-02-08T04:10:31.404Z,10.93
2024-02-08T04:13:17.065Z,13.40
2024-02-08T04:16:02.352Z,12.40
2024-02-08T04:18:47.917Z,11.13
2024-02-08T04:21:33.826Z,10.98
2024-02-08T04:24:19.312Z,12.50
2024-02-08T04:27:05.012Z,10.27
2024-02-08T04:29:50.804Z,13.52
2024-02-08T04:32:36.428Z,10.32
2024-02-08T04:35:22.406Z,12.60
2024-02-08T04:38:08.127Z,15.60
2024-02-08T04:40:53.992Z,18.25
2024-02-08T04:43:39.824Z,15.95
2024-02-08T04:46:25.449Z,11.95
2024-02-08T04:49:11.091Z,11.65
2024-02-08T04:51:56.959Z,14.07
2024-02-08T04:54:24.020Z,11.57
2024-02-08T04:56:51.151Z,11.77
2024-02-08T04:59:23.594Z,14.55
2024-02-08T05:01:51.710Z,10.75
2024-02-08T05:04:22.680Z,10.70
2024-02-08T05:06:51.293Z,9.57
2024-02-08T05:09:21.330Z,16.35
2024-02-08T05:11:53.523Z,13.27
2024-02-08T05:14:24.139Z,15.65
2024-02-08T05:16:57.504Z,16.65
2024-02-08T05:19:25.347Z,13.70
2024-02-08T05:21:53.205Z,10.95
2024-02-08T05:24:20.523Z,12.48
2024-02-08T05:26:48.209Z,11.82
2024-02-08T05:29:21.276Z,13.30
2024-02-08T05:31:49.593Z,13.52
2024-02-08T05:34:22.898Z,14.30
2024-02-08T05:36:51.137Z,11.40
2024-02-08T05:39:26.822Z,12.48
2024-02-08T05:41:57.624Z,14.23
2024-02-08T05:44:31.964Z,11.48
2024-02-08T05:47:10.610Z,11.48
2024-02-08T05:49:40.832Z,15.48
2024-02-08T05:52:09.160Z,11.23
2024-02-08T05:54:42.277Z,11.45
2024-02-08T05:57:12.963Z,9.20
2024-02-08T05:59:42.024Z,11.95
2024-02-08T06:02:25.611Z,9.85
2024-02-08T06:05:11.047Z,16.83
2024-02-08T06:07:38.879Z,11.63
2024-02-08T06:10:15.673Z,14.48
2024-02-08T06:12:53.747Z,10.38
2024-02-08T06:15:27.298Z,16.92
2024-02-08T06:18:08.075Z,13.65
2024-02-08T06:20:42.350Z,14.85
2024-02-08T06:23:24.541Z,11.88
2024-02-08T06:26:11.019Z,12.75
2024-02-08T06:28:42.664Z,10.70
2024-02-08T06:31:10.034Z,13.05
2024-02-08T06:33:55.639Z,11.68
2024-02-08T06:36:24.440Z,13.18
2024-02-08T06:38:55.311Z,11.18
2024-02-08T06:41:25.806Z,11.63
2024-02-08T06:44:09.165Z,13.52
2024-02-08T06:46:49.882Z,12.05
2024-02-08T06:49:36.031Z,12.20
2024-02-08T06:52:21.921Z,11.57
2024-02-08T06:55:07.464Z,14.45
2024-02-08T06:57:53.227Z,11.10
2024-02-08T07:00:38.963Z,14.60
2024-02-08T07:03:24.637Z,13.48
2024-02-08T07:06:10.314Z,17.10
2024-02-08T07:08:55.708Z,15.40
2024-02-08T07:11:41.381Z,16.98
2024-02-08T07:14:26.972Z,16.63
2024-02-08T07:17:12.560Z,16.13
2024-02-08T07:19:58.155Z,16.40
2024-02-08T07:22:43.865Z,14.93
2024-02-08T07:25:29.742Z,14.48
2024-02-08T07:28:15.758Z,17.90
2024-02-08T07:31:01.369Z,19.73
2024-02-08T07:33:47.376Z,15.73
2024-02-08T07:36:33.014Z,13.68
2024-02-08T07:39:18.615Z,13.52
2024-02-08T07:41:55.231Z,17.20
2024-02-08T07:44:34.923Z,14.55
2024-02-08T07:47:05.389Z,17.23
2024-02-08T07:49:46.021Z,13.50
2024-02-08T07:52:21.374Z,16.60
2024-02-08T07:54:58.148Z,14.25
2024-02-08T07:57:27.686Z,16.20
2024-02-08T07:59:59.720Z,14.73
2024-02-08T08:02:31.093Z,16.85
2024-02-08T08:04:58.497Z,16.65
2024-02-08T08:07:25.961Z,22.00
2024-02-08T08:10:10.764Z,16.92
2024-02-08T08:12:38.765Z,15.75
2024-02-08T08:15:09.787Z,16.30
2024-02-08T08:17:45.106Z,15.82
2024-02-08T08:20:39.106Z,16.33
2024-02-08T08:23:09.797Z,15.77
2024-02-08T08:26:01.739Z,18.92
2024-02-08T08:28:32.407Z,15.50
2024-02-08T08:31:22.548Z,12.82
2024-02-08T08:34:02.467Z,18.25
2024-02-08T08:39:20.739Z,21.20
2024-02-08T08:41:49.528Z,18.65
2024-02-08T08:44:19.994Z,16.38
2024-02-08T08:46:47.403Z,18.80
2024-02-08T08:49:16.559Z,20.33
2024-02-08T08:52:00.469Z,24.83
2024-02-08T08:54:30.920Z,21.95
2024-02-08T08:59:27.960Z,21.33
2024-02-08T09:01:55.527Z,19.65
2024-02-08T09:04:34.698Z,15.75
2024-02-08T09:07:12.618Z,20.42
2024-02-08T09:09:58.783Z,16.00
2024-02-08T09:12:40.546Z,20.23
2024-02-08T09:15:28.128Z,13.90
2024-02-08T09:18:10.663Z,11.30
2024-02-08T09:20:39.204Z,14.02
2024-02-08T09:23:15.881Z,16.23
2024-02-08T09:25:47.517Z,15.43
2024-02-08T09:28:26.485Z,13.02
2024-02-08T09:31:01.542Z,19.08
2024-02-08T09:33:31.955Z,16.02
2024-02-08T09:36:03.188Z,15.68
2024-02-08T09:38:45.009Z,13.93
2024-02-08T09:41:17.573Z,17.55
2024-02-08T09:43:49.745Z,18.00
2024-02-08T09:46:40.394Z,15.00
2024-02-08T09:49:19.836Z,12.52
2024-02-08T09:51:56.953Z,14.60
2024-02-08T09:54:33.435Z,13.00
2024-02-08T09:57:04.018Z,11.77
2024-02-08T09:59:53.204Z,13.25
2024-02-08T10:02:34.763Z,15.37
2024-02-08T10:05:21.214Z,13.40
2024-02-08T10:08:13.053Z,13.07
2024-02-08T10:11:01.205Z,9.90
2024-02-08T10:13:53.569Z,15.77
2024-02-08T10:19:20.454Z,10.30
2024-02-08T10:21:48.687Z,14.18
2024-02-08T10:24:34.646Z,14.23
2024-02-08T10:27:02.597Z,10.82
2024-02-08T10:29:34.141Z,11.90
2024-02-08T10:32:01.960Z,11.80
2024-02-08T10:34:42.016Z,17.77
2024-02-08T10:37:27.500Z,12.57
2024-02-08T10:40:01.720Z,12.80
2024-02-08T10:42:39.806Z,15.00
2024-02-08T10:45:07.479Z,12.05
2024-02-08T10:47:42.608Z,13.32
2024-02-08T10:50:22.026Z,13.40
2024-02-08T10:52:52.921Z,13.15
2024-02-08T10:55:20.394Z,12.18
2024-02-08T10:58:07.075Z,13.52
2024-02-08T11:00:42.946Z,13.70
2024-02-08T11:03:16.574Z,11.45
2024-02-08T11:05:54.409Z,15.82
2024-02-08T11:08:52.281Z,12.07
2024-02-08T11:11:22.634Z,11.80
2024-02-08T11:16:35.121Z,14.30
2024-02-08T11:21:46.214Z,11.82
2024-02-08T11:24:30.368Z,19.90
2024-02-08T11:27:03.969Z,13.25
2024-02-08T11:29:48.218Z,14.30
2024-02-08T11:32:20.314Z,16.80
2024-02-08T11:34:48.686Z,18.67
2024-02-08T11:37:20.575Z,19.50
2024-02-08T11:39:59.826Z,16.88
2024-02-08T11:42:33.412Z,19.65
2024-02-08T11:45:02.472Z,22.33
2024-02-08T11:47:39.224Z,25.80
2024-02-08T11:50:10.684Z,24.13
2024-02-08T11:52:39.857Z,24.17
2024-02-08T11:55:15.869Z,24.52
2024-02-08T11:57:43.628Z,24.92
2024-02-08T12:00:18.232Z,23.63
2024-02-08T12:02:57.650Z,25.33
2024-02-08T12:05:35.612Z,26.88
2024-02-08T12:08:11.112Z,28.60
2024-02-08T12:10:40.063Z,31.60
2024-02-08T12:13:15.303Z,29.60
2024-02-08T12:15:58.013Z,28.20
2024-02-08T12:18:30.163Z,27.48
2024-02-08T12:21:01.518Z,27.15
2024-02-08T12:23:32.696Z,29.98
2024-02-08T12:26:06.070Z,28.77
2024-02-08T12:28:39.430Z,30.60
2024-02-08T12:31:18.642Z,30.33
2024-02-08T12:33:53.522Z,38.22
2024-02-08T12:36:26.786Z,32.45
2024-02-08T12:38:56.929Z,33.00
2024-02-08T12:41:24.986Z,35.60
2024-02-08T12:43:55.914Z,33.50
2024-02-08T12:46:24.025Z,38.38
2024-02-08T12:48:51.629Z,40.10
2024-02-08T12:51:20.629Z,35.22
2024-02-08T12:53:50.913Z,40.00
2024-02-08T12:56:22.119Z,41.88
2024-02-08T12:59:02.872Z,36.20
2024-02-08T13:01:40.496Z,38.70
2024-02-08T13:04:08.392Z,34.35
2024-02-08T13:06:36.013Z,41.55
2024-02-08T13:09:18.524Z,38.60
2024-02-08T13:11:45.956Z,41.08
2024-02-08T13:14:15.603Z,37.55
2024-02-08T13:16:42.700Z,37.20
2024-02-08T13:19:15.362Z,38.05
2024-02-08T13:21:45.716Z,36.13
2024-02-08T13:26:40.516Z,41.92
2024-02-08T13:29:07.558Z,37.10
2024-02-08T13:31:39.642Z,37.92
2024-02-08T13:34:10.622Z,36.53
2024-02-08T13:36:37.991Z,32.67
2024-02-08T13:39:05.285Z,35.83
2024-02-08T13:41:35.407Z,35.00
2024-02-08T13:44:03.281Z,36.67
2024-02-08T13:46:34.343Z,37.63
2024-02-08T13:49:07.924Z,37.00
2024-02-08T13:51:35.307Z,35.90
2024-02-08T13:54:03.270Z,37.17
2024-02-08T13:56:30.364Z,35.42
2024-02-08T13:59:01.888Z,36.65
2024-02-08T14:01:29.151Z,38.20
2024-02-08T14:03:57.688Z,39.47
2024-02-08T14:06:27.645Z,38.38
2024-02-08T14:09:15.389Z,42.00
2024-02-08T14:11:46.194Z,42.72
2024-02-08T14:14:14.749Z,45.80
2024-02-08T14:16:41.792Z,39.42
2024-02-08T14:19:12.966Z,41.13
2024-02-08T14:21:42.387Z,41.20
2024-02-08T14:24:13.076Z,45.63
2024-02-08T14:26:44.540Z,41.00
2024-02-08T14:29:11.913Z,41.90
2024-02-08T14:31:41.010Z,45.05
2024-02-08T14:34:11.119Z,43.65
2024-02-08T14:36:49.749Z,42.63
2024-02-08T14:39:30.036Z,36.92
2024-02-08T14:42:00.103Z,40.65
2024-02-08T14:44:33.235Z,41.70
2024-02-08T14:47:01.589Z,41.30
2024-02-08T14:49:31.581Z,44.45
2024-02-08T14:52:04.669Z,44.20
2024-02-08T14:54:33.049Z,43.28
2024-02-08T14:57:07.002Z,40.78
2024-02-08T14:59:52.819Z,44.42
2024-02-08T15:02:24.292Z,43.75
2024-02-08T15:04:55.801Z,46.30
2024-02-08T15:07:45.890Z,49.95
2024-02-08T15:10:15.809Z,43.60
2024-02-08T15:12:49.885Z,48.00
2024-02-08T15:15:35.370Z,53.05
2024-02-08T15:18:16.308Z,44.83
2024-02-08T15:20:49.045Z,43.25
2024-02-08T15:23:49.681Z,43.13
2024-02-08T15:26:26.636Z,43.90
2024-02-08T15:28:58.968Z,44.20
2024-02-08T15:31:41.648Z,50.15
2024-02-08T15:34:18.529Z,48.85
2024-02-08T15:36:52.029Z,45.45
2024-02-08T15:39:49.213Z,45.47
2024-02-08T15:42:21.703Z,43.55
2024-02-08T15:44:54.326Z,48.25
2024-02-08T15:47:22.561Z,41.30
2024-02-08T15:49:56.798Z,42.92
2024-02-08T15:52:27.600Z,45.95
2024-02-08T15:54:59.859Z,42.33
2024-02-08T15:57:31.509Z,46.38
2024-02-08T16:00:01.734Z,46.22
2024-02-08T16:02:36.209Z,47.25
2024-02-08T16:05:16.184Z,50.65
2024-02-08T16:07:44.386Z,50.78
2024-02-08T16:10:33.008Z,45.42
2024-02-08T16:13:07.096Z,46.22
2024-02-08T16:15:56.030Z,47.95
2024-02-08T16:18:27.619Z,48.63
2024-02-08T16:20:56.633Z,47.00
2024-02-08T16:23:45.583Z,41.33
2024-02-08T16:26:14.078Z,49.90
2024-02-08T16:28:51.459Z,46.78
2024-02-08T16:31:19.641Z,45.50
2024-02-08T16:33:56.766Z,43.70
2024-02-08T16:36:31.495Z,43.28
2024-02-08T16:39:15.883Z,46.33
2024-02-08T16:41:50.336Z,43.92
2024-02-08T16:44:23.748Z,50.42
2024-02-08T16:46:57.177Z,42.67
2024-02-08T16:49:29.515Z,42.05
2024-02-08T16:52:05.424Z,51.15
2024-02-08T16:54:36.264Z,47.17
2024-02-08T16:57:09.079Z,46.22
2024-02-08T16:59:54.542Z,50.53
2024-02-08T17:02:34.251Z,48.38
2024-02-08T17:05:11.624Z,50.72
2024-02-08T17:07:45.518Z,49.70
2024-02-08T17:10:24.354Z,53.60
2024-02-08T17:12:57.351Z,51.22
2024-02-08T17:15:30.883Z,56.08
2024-02-08T17:18:07.775Z,55.40
2024-02-08T17:20:54.380Z,50.60
2024-02-08T17:23:29.430Z,47.90
2024-02-08T17:26:17.047Z,60.33
2024-02-08T17:29:03.302Z,55.75
2024-02-08T17:31:30.764Z,52.70
2024-02-08T17:33:58.995Z,60.88
2024-02-08T17:36:32.374Z,54.97
2024-02-08T17:38:59.552Z,66.40
2024-02-08T17:41:29.656Z,55.53
2024-02-08T17:43:57.354Z,58.45
2024-02-08T17:46:24.654Z,62.10
2024-02-08T17:48:55.873Z,59.50
2024-02-08T17:51:39.314Z,66.38
2024-02-08T17:54:09.891Z,69.03
2024-02-08T17:59:17.672Z,73.38
2024-02-08T18:01:56.573Z,74.30
2024-02-08T18:04:25.815Z,75.53
2024-02-08T18:07:10.409Z,65.38
2024-02-08T18:09:41.475Z,63.05
2024-02-08T18:12:15.025Z,65.60
2024-02-08T18:14:45.317Z,64.70
2024-02-08T18:17:27.790Z,64.43
2024-02-08T18:19:55.923Z,59.90
2024-02-08T18:22:30.129Z,66.95
2024-02-08T18:24:59.551Z,60.25
2024-02-08T18:27:34.403Z,66.53
2024-02-08T18:30:06.006Z,65.40
2024-02-08T18:32:36.208Z,59.38
2024-02-08T18:37:35.904Z,61.80
2024-02-08T18:40:09.315Z,62.35
2024-02-08T18:42:40.236Z,63.35
2024-02-08T18:45:18.218Z,64.32
2024-02-08T18:47:46.291Z,71.20
2024-02-08T18:50:23.823Z,77.95
2024-02-08T18:52:51.533Z,72.47
2024-02-08T18:55:34.322Z,83.75
2024-02-08T18:58:02.524Z,82.97
2024-02-08T19:00:31.702Z,91.43
2024-02-08T19:03:02.576Z,82.07
2024-02-08T19:05:30.020Z,80.55
2024-02-08T19:07:59.966Z,81.68
2024-02-08T19:10:30.588Z,83.10
2024-02-08T19:12:58.252Z,83.80
2024-02-08T19:15:25.461Z,94.55
2024-02-08T19:18:00.229Z,93.88
2024-02-08T19:20:33.849Z,86.50
2024-02-08T19:23:06.705Z,78.60
2024-02-08T19:25:36.835Z,89.95
2024-02-08T19:30:35.660Z,83.63
2024-02-08T19:33:06.552Z,82.78
2024-02-08T19:35:35.411Z,93.35
2024-02-08T19:38:05.252Z,84.20
2024-02-08T19:40:33.139Z,86.80
2024-02-08T19:43:06.574Z,88.95
2024-02-08T19:45:34.846Z,83.97
2024-02-08T19:48:04.250Z,85.30
2024-02-08T19:50:32.661Z,85.32
2024-02-08T19:52:59.979Z,88.72
2024-02-08T19:55:31.069Z,90.45
2024-02-08T19:57:59.333Z,93.57
2024-02-08T20:00:30.793Z,97.80
2024-02-08T20:03:08.782Z,85.18
2024-02-08T20:05:41.641Z,80.80
2024-02-08T20:08:11.933Z,88.10
2024-02-08T20:10:40.972Z,85.95
2024-02-08T20:13:13.256Z,90.55
2024-02-08T20:15:41.617Z,93.25
2024-02-08T20:18:11.023Z,91.82
2024-02-08T20:20:38.385Z,88.57
2024-02-08T20:23:11.598Z,89.75
2024-02-08T20:25:40.909Z,91.00
2024-02-08T20:28:08.471Z,82.68
2024-02-08T20:30:40.123Z,87.05
2024-02-08T20:33:14.065Z,81.85
2024-02-08T20:35:47.545Z,93.35
2024-02-08T20:38:16.538Z,85.80
2024-02-08T20:40:43.914Z,92.22
2024-02-08T20:43:19.241Z,89.93
2024-02-08T20:45:50.636Z,90.10
2024-02-08T20:48:21.838Z,90.22
2024-02-08T20:50:52.088Z,81.10
2024-02-08T20:53:19.669Z,88.38
2024-02-08T20:55:49.034Z,90.65
2024-02-08T20:58:18.726Z,91.95
2024-02-08T21:00:47.926Z,90.15
2024-02-08T21:03:17.266Z,90.90
2024-02-08T21:05:50.415Z,86.95
2024-02-08T21:08:18.206Z,86.80
2024-02-08T21:10:48.882Z,91.78
2024-02-08T21:13:20.836Z,85.35
2024-02-08T21:15:51.087Z,90.10
2024-02-08T21:18:21.343Z,88.60
2024-02-08T21:20:52.637Z,73.97
2024-02-08T21:23:20.241Z,86.65
2024-02-08T21:25:51.600Z,85.10
2024-02-08T21:28:23.741Z,82.03
2024-02-08T21:30:51.291Z,77.68
2024-02-08T21:33:18.652Z,83.80
2024-02-08T21:35:48.703Z,79.78
2024-02-08T21:38:17.719Z,70.07
2024-02-08T21:40:47.646Z,73.13
2024-02-08T21:45:48.470Z,68.32
2024-02-08T21:48:16.418Z,65.10
2024-02-08T21:50:49.000Z,55.47
2024-02-08T21:53:17.415Z,62.97
2024-02-08T21:55:44.784Z,55.35
2024-02-08T21:58:16.930Z,58.45
2024-02-08T22:00:44.221Z,59.15
2024-02-08T22:03:11.561Z,59.03
2024-02-08T22:05:39.444Z,55.20
2024-02-08T22:08:07.899Z,58.42
2024-02-08T22:10:37.857Z,61.72
2024-02-08T22:13:07.442Z,67.20
2024-02-08T22:15:35.216Z,57.90
2024-02-08T22:18:05.842Z,63.88
2024-02-08T22:20:34.255Z,59.55
2024-02-08T22:23:02.160Z,64.38
2024-02-08T22:25:29.582Z,58.30
2024-02-08T22:27:58.539Z,66.45
2024-02-08T22:30:25.866Z,63.55
2024-02-08T22:32:53.939Z,68.65
2024-02-08T22:35:21.177Z,62.33
2024-02-08T22:37:50.181Z,54.75
2024-02-08T22:40:20.412Z,67.05
2024-02-08T22:42:47.923Z,70.53
2024-02-08T22:45:15.279Z,61.63
2024-02-08T22:47:43.744Z,63.67
2024-02-08T22:50:16.048Z,70.22
2024-02-08T22:52:47.325Z,62.60
2024-02-08T22:55:16.791Z,63.90
2024-02-08T22:57:44.635Z,66.15
2024-02-08T23:00:26.074Z,67.68
2024-02-08T23:03:08.824Z,69.93
2024-02-08T23:05:43.403Z,64.00
2024-02-08T23:08:12.256Z,70.22
2024-02-08T23:10:40.527Z,71.47
2024-02-08T23:13:12.185Z,68.70
2024-02-08T23:15:47.336Z,71.28
2024-02-08T23:18:16.596Z,65.47
2024-02-08T23:20:45.319Z,74.30
2024-02-08T23:23:12.583Z,74.40
2024-02-08T23:25:41.245Z,89.38
2024-02-08T23:28:10.604Z,87.60
2024-02-08T23:30:45.943Z,76.97
2024-02-08T23:33:18.282Z,95.78
2024-02-08T23:35:46.568Z,115.57
2024-02-08T23:38:19.432Z,107.38
2024-02-08T23:40:47.123Z,156.48
2024-02-08T23:43:16.231Z,179.05
2024-02-08T23:45:44.771Z,221.52
2024-02-08T23:48:12.225Z,177.95
2024-02-08T23:50:39.387Z,136.52
2024-02-08T23:53:08.191Z,149.95
2024-02-08T23:55:39.282Z,126.57
2024-02-08T23:58:12.241Z,97.90
